Flight Track Log - Related Links

Times and Time Zones

All times are in EDT time to prevent confusion due to time zone crossing. See the VRD193 flight status page for this flight to view local times or setup timezone preferences in your user account.

Time Position Orientation Groundspeed Altitude Reporting Facility
EDT Latitude Longitude Course Direction KTS MPH feet Rate Location/Type
05:55PM 40.7354 -74.4106 286° West 250 288 10,000  Level FlightAware ADS-B (KWWD)
05:55PM 40.7489 -74.4664 286° West 250 288 12,000 2,514 Climbing FlightAware ADS-B (KWWD)
05:56PM 40.7623 -74.5211 288° West 268 308 13,100 1,543 Climbing FlightAware ADS-B (KWWD)
05:57PM 40.7763 -74.5779 288° West 268 308 13,800 1,182 Climbing FlightAware ADS-B (KWWD)
05:57PM 40.7917 -74.6411 287° West 341 392 14,400 1,855 Climbing FlightAware ADS-B (KWWD)
05:57PM 40.8024 -74.6848 279° West 331 381 15,500 3,064 Climbing FlightAware ADS-B (KWWD)
05:58PM 40.8042 -74.7329 264° West 328 377 16,800 3,107 Climbing FlightAware ADS-B (KWWD)
05:58PM 40.7985 -74.7976 263° West 321 369 18,400 2,535 Climbing FlightAware ADS-B (KWWD)
05:59PM 40.7919 -74.8735 264° West 328 377 19,800 1,971 Climbing FlightAware ADS-B (KWWD)
06:00PM 40.7866 -74.9348 265° West 336 387 20,700 2,143 Climbing FlightAware ADS-B (KWWD)
06:00PM 40.7796 -75.0149 264° West 335 386 22,300 1,913 Climbing FlightAware ADS-B (KWWD)
06:01PM 40.7744 -75.0740 265° West 346 398 22,900 2,000 Climbing FlightAware ADS-B (KWWD)
06:01PM 40.7686 -75.1389 265° West 336 387 24,300 2,706 Climbing FlightAware ADS-B (KWWD)
06:02PM 40.7650 -75.1806 263° West 333 383 25,200 1,846 Climbing FlightAware ADS-B (KPHL)
06:02PM 40.7595 -75.2423 263° West 340 391 25,900 1,102 Climbing FlightAware ADS-B (KPHL)
06:02PM 40.7559 -75.2825 265° West 351 404 26,100 612 Climbing FlightAware ADS-B (KWWD)
06:03PM 40.7501 -75.3481 265° West 366 421 26,400 522 Climbing FlightAware ADS-B (KWWD)
06:04PM 40.7421 -75.4360 264° West 385 443 26,700 441 Climbing FlightAware ADS-B (KWWD)
06:04PM 40.7357 -75.5062 263° West 400 460 26,900 900 Climbing FlightAware ADS-B (KWWD)
06:05PM 40.7292 -75.5783 263° West 400 460 27,600 1,258 Climbing FlightAware ADS-B (KWWD)
06:05PM 40.7219 -75.6564 263° West 404 465 28,200 1,200 Climbing FlightAware ADS-B (KWWD)
06:06PM 40.7132 -75.7496 263° West 405 466 29,000 1,391 Climbing FlightAware ADS-B (KWWD)
06:06PM 40.7062 -75.8240 263° West 402 463 29,800 1,377 Climbing FlightAware ADS-B (KWWD)
06:07PM 40.7056 -75.8308 263° West 400 460 30,400 1,114 Climbing FlightAware ADS-B
06:07PM 40.6901 -75.9938 263° West 403 464 31,100 1,286 Climbing FlightAware ADS-B (KWWD)
06:08PM 40.6830 -76.0650 263° West 400 460 31,900 1,538 Climbing FlightAware ADS-B
06:08PM 40.6811 -76.0884 263° West 397 457 32,100 1,297 Climbing FlightAware ADS-B (KWWD)
06:08PM 40.6750 -76.1500 263° West 394 453 32,700 1,355 Climbing FlightAware ADS-B
06:09PM 40.6740 -76.1621 265° West 392 451 32,800 1,200 Climbing FlightAware ADS-B (KWWD)
06:09PM 40.6720 -76.2240 270° West 395 455 33,300 1,200 Climbing FlightAware ADS-B
06:09PM 40.6719 -76.2337 270° West 394 453 33,400 968 Climbing FlightAware ADS-B (KWWD)
06:10PM 40.6760 -76.2970 278° West 396 456 33,800 931 Climbing FlightAware ADS-B
06:10PM 40.6860 -76.3710 282° West 397 457 34,300 1,455 Climbing FlightAware ADS-B
06:11PM 40.6980 -76.4510 282° West 385 443 35,400 1,364 Climbing FlightAware ADS-B
06:11PM 40.7080 -76.5190 281° West 384 442 35,800 1,000 Climbing FlightAware ADS-B
06:12PM 40.7190 -76.5900 281° West 378 435 36,400 1,029 Climbing FlightAware ADS-B
06:12PM 40.7204 -76.6024 280° West 377 434 36,400 545 Level FlightAware ADS-B (KWWD)
06:12PM 40.7223 -76.6155 280° West 377 434 36,500 968 Climbing FlightAware ADS-B (KWWD)
06:12PM 40.7300 -76.6690 282° West 374 430 36,900 938 Climbing FlightAware ADS-B
06:12PM 40.7332 -76.6891 280° West 376 433 37,000  Climbing FlightAware ADS-B (KWWD)
06:13PM 40.7400 -76.7350 281° West 384 442 36,900  Descending FlightAware ADS-B
06:13PM 40.7438 -76.7624 279° West 385 443 37,000 375 Climbing FlightAware ADS-B (KWWD)
06:13PM 40.7454 -76.7734 279° West 385 443 37,000 316 Level FlightAware ADS-B (KWWD)
06:14PM 40.7569 -76.8533 280° West 389 448 37,200 526 Climbing FlightAware ADS-B (KWWD)
06:14PM 40.7648 -76.9069 281° West 390 449 37,500 545 Climbing FlightAware ADS-B (CYYZ)
06:14PM 40.7679 -76.9288 280° West 389 448 37,500 490 Level FlightAware ADS-B (KWWD)
06:15PM 40.7810 -77.0195 280° West 386 444 37,900 400 Climbing FlightAware ADS-B (KWWD)
06:15PM 40.7870 -77.0612 281° West 391 450 37,900 98 Level FlightAware ADS-B (CYYZ)
06:16PM 40.7973 -77.1333 281° West 399 459 38,000 86 Climbing FlightAware ADS-B (CYYZ)
06:16PM 40.8120 -77.2371 281° West 403 464 38,000  Level FlightAware ADS-B (CYYZ)
06:17PM 40.8183 -77.2814 280° West 386 444 38,000  Level FlightAware ADS-B (KWWD)
06:17PM 40.8221 -77.3089 281° West 403 464 38,000  Level FlightAware ADS-B (CYYZ)
06:17PM 40.8288 -77.3558 279° West 402 463 38,000  Level FlightAware ADS-B (KWWD)
06:17PM 40.8326 -77.3830 281° West 404 465 38,000  Level FlightAware ADS-B (CYYZ)
06:18PM 40.8417 -77.4485 281° West 405 466 38,000 102 Level FlightAware ADS-B (CYYZ)
06:18PM 40.8520 -77.5226 281° West 403 464 38,100 100 Climbing FlightAware ADS-B (CYYZ)
06:19PM 40.8626 -77.5996 281° West 400 460 38,100 -100 Level FlightAware ADS-B (CYYZ)
06:19PM 40.8726 -77.6718 281° West 398 458 38,000 -75 Descending FlightAware ADS-B (CYYZ)
06:20PM 40.8887 -77.7889 281° West 395 455 38,000  Level FlightAware ADS-B (CYYZ)
06:21PM 40.8985 -77.8605 281° West 394 453 38,000  Level FlightAware ADS-B (CYYZ)
06:21PM 40.9075 -77.9269 281° West 391 450 38,000  Level FlightAware ADS-B (CYYZ)
06:22PM 40.9173 -77.9995 281° West 388 447 38,000  Level FlightAware ADS-B (CYYZ)
06:22PM 40.9259 -78.0677 280° West 387 445 38,000  Level FlightAware ADS-B (CYYZ)
06:23PM 40.9347 -78.1412 279° West 386 444 38,000  Level FlightAware ADS-B (CYYZ)
06:23PM 40.9432 -78.2103 280° West 384 442 38,000  Level FlightAware ADS-B (CYYZ)
06:23PM 40.9440 -78.2173 279° West 402 463 38,000  Level FlightAware ADS-B (KWWD)
06:24PM 40.9516 -78.2795 280° West 386 444 38,000  Level FlightAware ADS-B (CYYZ)
06:24PM 40.9602 -78.3495 280° West 389 448 38,000  Level FlightAware ADS-B (CYYZ)
06:25PM 40.9689 -78.4212 280° West 392 451 38,000  Level FlightAware ADS-B (CYYZ)
06:25PM 40.9775 -78.4937 279° West 397 457 38,000 85 Level FlightAware ADS-B (CYYZ)
06:26PM 40.9890 -78.5895 279° West 398 458 38,100 87 Climbing FlightAware ADS-B (CYYZ)
06:26PM 40.9976 -78.6620 279° West 396 456 38,100  Level FlightAware ADS-B (CYYZ)
06:27PM 41.0057 -78.7298 279° West 394 453 38,100  Level FlightAware ADS-B (CYYZ)
06:27PM 41.0097 -78.7641 278° West 394 453 38,100  Level FlightAware ADS-B (KWWD)
06:27PM 41.0147 -78.8064 279° West 394 453 38,100 -200 Level FlightAware ADS-B (CYYZ)
06:27PM 41.0182 -78.8358 278° West 393 452 38,000 -207 Descending FlightAware ADS-B (KWWD)
06:28PM 41.0227 -78.8748 279° West 392 451 38,000  Level FlightAware ADS-B (CYYZ)
06:28PM 41.0262 -78.9041 279° West 392 451 38,000  Level FlightAware ADS-B (EPLB / LUZ)
06:28PM 41.0313 -78.9471 279° West 390 449 38,000  Level FlightAware ADS-B (CYYZ)
06:29PM 41.0396 -79.0181 279° West 388 447 38,000  Level FlightAware ADS-B (CYYZ)
06:29PM 41.0414 -79.0340 279° West 388 447 38,000  Level FlightAware ADS-B (EPLB / LUZ)
06:29PM 41.0478 -79.0881 279° West 386 444 38,000  Level FlightAware ADS-B (CYYZ)
06:30PM 41.0556 -79.1575 279° West 385 443 38,000  Level FlightAware ADS-B (CYYZ)
06:30PM 41.0551 -79.1524 279° West 384 442 38,000  Level FlightAware ADS-B (EPLB / LUZ)
06:30PM 41.0635 -79.2272 279° West 384 442 38,000  Level FlightAware ADS-B (CYYZ)
06:31PM 41.0713 -79.2968 279° West 384 442 38,000  Level FlightAware ADS-B (CYYZ)
06:31PM 41.0791 -79.3664 279° West 384 442 38,000  Level FlightAware ADS-B (CYYZ)
06:32PM 41.0868 -79.4355 279° West 383 441 38,000  Level FlightAware ADS-B (CYYZ)
06:32PM 41.0948 -79.5060 279° West 384 442 38,000  Level FlightAware ADS-B (CYYZ)
06:33PM 41.1025 -79.5759 279° West 384 442 38,000  Level FlightAware ADS-B (CYYZ)
06:33PM 41.1101 -79.6454 279° West 386 444 38,000  Level FlightAware ADS-B (CYYZ)
06:34PM 41.1169 -79.7077 278° West 388 447 38,000  Level FlightAware ADS-B (EPLB / LUZ)
06:34PM 41.1175 -79.7130 279° West 387 445 38,000  Level FlightAware ADS-B (CYYZ)
06:34PM 41.1255 -79.7865 279° West 389 448 38,000  Level FlightAware ADS-B (CYYZ)
06:34PM 41.1269 -79.7997 278° West 390 449 38,000  Level FlightAware ADS-B (EPLB / LUZ)
06:35PM 41.1329 -79.8551 279° West 391 450 38,000 113 Level FlightAware ADS-B (CYYZ)
06:35PM 41.1410 -79.9296 279° West 391 450 38,100 125 Climbing FlightAware ADS-B (CYYZ)
06:36PM 41.1457 -79.9732 278° West 391 450 38,100  Level FlightAware ADS-B (EPLB / LUZ)
06:36PM 41.1483 -79.9977 278° West 389 448 38,100  Level FlightAware ADS-B (CYYZ)
06:36PM 41.1559 -80.0699 278° West 388 447 38,100 -98 Level FlightAware ADS-B (CYYZ)
06:37PM 41.1634 -80.1410 279° West 387 445 38,000 -102 Descending FlightAware ADS-B (CYYZ)
06:37PM 41.1707 -80.2108 278° West 385 443 38,000  Level FlightAware ADS-B (CYYZ)
06:38PM 41.1782 -80.2813 278° West 384 442 38,000  Level FlightAware ADS-B (CYYZ)
06:38PM 41.1852 -80.3491 278° West 385 443 38,000  Level FlightAware ADS-B (CYYZ)
06:39PM 41.1923 -80.4186 278° West 384 442 38,000  Level FlightAware ADS-B (CYYZ)
06:39PM 41.1997 -80.4915 278° West 385 443 38,000  Level FlightAware ADS-B (CYYZ)
06:40PM 41.2020 -80.5140 278° West 386 444 38,000  Level FlightAware ADS-B (CYYZ)
06:40PM 41.2125 -80.6168 278° West 386 444 38,000  Level FlightAware ADS-B (CYYZ)
06:41PM 41.2185 -80.6748 278° West 388 447 38,000  Level FlightAware ADS-B (CYYZ)
06:43PM 41.2514 -81.0087 277° West 387 445 38,000  Level FlightAware ADS-B (EPLB / LUZ)
06:44PM 41.2656 -81.1548 277° West 388 447 38,000  Level FlightAware ADS-B (EPLB / LUZ)
06:44PM 41.2647 -81.1459 278° West 388 447 38,000  Level FlightAware ADS-B (CYYZ)
06:45PM 41.2747 -81.2491 277° West 387 445 38,000  Level FlightAware ADS-B (EPLB / LUZ)
06:45PM 41.2821 -81.3259 278° West 388 447 38,000  Level FlightAware ADS-B (CYYZ)
06:46PM 41.2875 -81.3839 277° West 388 447 38,000  Level FlightAware ADS-B (EPLB / LUZ)
06:47PM 41.3004 -81.5235 278° West 388 447 38,000 63 Level FlightAware ADS-B (CYYZ)
06:47PM 41.3091 -81.6149 277° West 387 445 38,100  Climbing FlightAware ADS-B (EPLB / LUZ)
06:48PM 41.3252 -81.7907 277° West 382 440 38,000 -71 Descending FlightAware ADS-B (EPLB / LUZ)
06:49PM 41.3262 -81.8028 277° West 381 438 38,000  Level FlightAware ADS-B (CYYZ)
06:49PM 41.3291 -81.8348 277° West 381 438 38,000  Level FlightAware ADS-B (CYYZ)
06:50PM 41.3390 -81.9472 277° West 381 438 38,000  Level FlightAware ADS-B (CYYZ)
06:50PM 41.3427 -81.9899 277° West 381 438 38,000  Level FlightAware ADS-B (CYYZ)
06:51PM 41.3590 -82.1727 277° West 377 434 38,000  Level FlightAware ADS-B (CYYZ)
06:52PM 41.3681 -82.3278 274° West 377 434 38,000  Level FlightAware ADS-B (CYYZ)
06:53PM 41.3716 -82.3921 275° West 377 434 38,000  Level FlightAware ADS-B (CYYZ)
06:53PM 41.3758 -82.4641 275° West 377 434 38,000  Level FlightAware ADS-B (CYYZ)
06:54PM 41.3796 -82.5316 275° West 378 435 38,000  Level FlightAware ADS-B (CYYZ)
06:54PM 41.3833 -82.5973 275° West 378 435 38,000  Level FlightAware ADS-B (CYYZ)
06:55PM 41.3844 -82.6171 275° West 377 434 38,000  Level FlightAware ADS-B (CYYZ)
06:55PM 41.3915 -82.7430 275° West 378 435 38,000  Level FlightAware ADS-B (CYYZ)
06:56PM 41.3927 -82.7638 275° West 378 435 38,000  Level FlightAware ADS-B (CYYZ)
06:56PM 41.3982 -82.8668 275° West 378 435 38,000  Level FlightAware ADS-B (CYYZ)
06:58PM 41.4111 -83.1078 274° West 377 434 38,000  Level FlightAware ADS-B (CYYZ)
06:59PM 41.4211 -83.2994 274° West 377 434 38,000  Level Cleveland Center
07:09PM 41.4793 -84.6232 273° West 371 427 38,000  Level FlightAware ADS-B
07:09PM 41.4824 -84.7002 273° West 372 428 38,000  Level FlightAware ADS-B
07:10PM 41.4854 -84.7748 273° West 374 430 38,000  Level FlightAware ADS-B
07:11PM 41.4914 -84.9399 273° West 376 433 38,000  Level FlightAware ADS-B
07:12PM 41.4944 -85.0260 273° West 377 434 38,000  Level FlightAware ADS-B
07:12PM 41.4963 -85.0844 272° West 377 434 38,000  Level FlightAware ADS-B
07:13PM 41.5003 -85.2075 273° West 376 433 38,000  Level FlightAware ADS-B
07:14PM 41.5031 -85.2832 273° West 376 433 38,000  Level FlightAware ADS-B
07:15PM 41.5104 -85.5187 273° West 373 429 38,000  Level FlightAware ADS-B
07:16PM 41.5142 -85.6384 272° West 372 428 38,000  Level FlightAware ADS-B
07:17PM 41.5163 -85.7079 272° West 372 428 38,000  Level FlightAware ADS-B
07:17PM 41.5185 -85.7858 272° West 373 429 38,000  Level FlightAware ADS-B
07:18PM 41.5213 -85.8845 272° West 376 433 38,000  Level FlightAware ADS-B
07:19PM 41.5236 -85.9717 272° West 379 436 38,000  Level FlightAware ADS-B
07:19PM 41.5255 -86.0464 272° West 380 437 38,000  Level FlightAware ADS-B
07:20PM 41.5269 -86.1167 271° West 381 438 38,000  Level FlightAware ADS-B
07:20PM 41.5286 -86.2160 271° West 381 438 38,000  Level FlightAware ADS-B
07:21PM 41.5302 -86.3134 271° West 381 438 38,000  Level FlightAware ADS-B
07:22PM 41.5312 -86.3771 271° West 381 438 38,000  Level FlightAware ADS-B
07:22PM 41.5331 -86.4975 271° West 377 434 38,000 76 Level FlightAware ADS-B
07:23PM 41.5344 -86.5687 271° West 374 430 38,100  Climbing FlightAware ADS-B
07:23PM 41.5354 -86.6358 271° West 373 429 38,000 -86 Descending FlightAware ADS-B
07:24PM 41.5364 -86.7270 271° West 372 428 38,000  Level FlightAware ADS-B
07:25PM 41.5355 -86.6500 271° West 372 428 38,000  Level FlightAware ADS-B (EGPH / EDI)
07:30PM 41.5428 -87.3729 271° West 366 421 38,000  Level FlightAware ADS-B (EGPH / EDI)
07:32PM 41.5428 -87.3729 270° West 370 426 38,000  Level FlightAware ADS-B (EGPH / EDI)
07:35PM 41.5462 -88.1810 270° West 371 427 38,000  Level FlightAware ADS-B
07:35PM 41.5463 -88.2733 270° West 371 427 38,000  Level FlightAware ADS-B
07:36PM 41.5463 -88.3427 270° West 371 427 38,000  Level FlightAware ADS-B
07:36PM 41.5464 -88.3509 271° West 370 426 38,000  Level FlightAware ADS-B (EGPH / EDI)
07:36PM 41.5477 -88.4301 272° West 369 425 38,000  Level FlightAware ADS-B
07:37PM 41.5491 -88.5007 271° West 367 422 38,000  Level FlightAware ADS-B
07:38PM 41.5502 -88.5697 271° West 365 420 38,000  Level FlightAware ADS-B
07:38PM 41.5514 -88.6500 271° West 364 419 38,000  Level FlightAware ADS-B
07:39PM 41.5523 -88.7255 271° West 363 418 38,000  Level FlightAware ADS-B
07:39PM 41.5532 -88.7928 271° West 362 417 38,000  Level FlightAware ADS-B
07:40PM 41.5542 -88.8814 271° West 362 417 38,000  Level FlightAware ADS-B
07:40PM 41.5549 -88.9478 271° West 363 418 38,000  Level FlightAware ADS-B
07:41PM 41.5561 -89.0612 271° West 363 418 38,000  Level FlightAware ADS-B
07:42PM 41.5567 -89.1270 271° West 364 419 38,000  Level FlightAware ADS-B
07:42PM 41.5576 -89.2159 271° West 366 421 38,000  Level FlightAware ADS-B
07:43PM 41.5582 -89.2866 271° West 366 421 38,000  Level FlightAware ADS-B
07:44PM 41.5588 -89.3770 271° West 367 422 38,000  Level FlightAware ADS-B
07:44PM 41.5596 -89.4884 270° West 368 423 38,000  Level FlightAware ADS-B
07:45PM 41.5599 -89.5701 271° West 368 423 38,000  Level FlightAware ADS-B (EGPH / EDI)
07:46PM 41.5604 -89.6476 271° West 369 425 38,000  Level FlightAware ADS-B
07:46PM 41.5609 -89.7342 271° West 371 427 38,000  Level FlightAware ADS-B
07:47PM 41.5612 -89.7891 270° West 373 429 38,000  Level FlightAware ADS-B
07:47PM 41.5616 -89.8992 270° West 373 429 38,000  Level FlightAware ADS-B
07:48PM 41.5618 -89.9861 270° West 373 429 38,000  Level FlightAware ADS-B
07:49PM 41.5619 -90.0616 270° West 374 430 38,000  Level FlightAware ADS-B
07:49PM 41.5620 -90.1304 270° West 375 432 38,000  Level FlightAware ADS-B
07:50PM 41.5620 -90.1345 270° West 374 430 38,000  Level FlightAware ADS-B
07:51PM 41.5620 -90.3537 270° West 374 430 38,000  Level FlightAware ADS-B
07:52PM 41.5618 -89.9903 270° West 374 430 38,000  Level FlightAware ADS-B
07:54PM 41.5602 -90.8704 270° West 379 436 38,000  Level FlightAware ADS-B
07:55PM 41.5596 -90.9657 270° West 379 436 38,000  Level FlightAware ADS-B
07:56PM 41.5598 -90.9419 269° West 380 437 38,000  Level FlightAware ADS-B
07:56PM 41.5585 -91.1175 269° West 379 436 38,000  Level FlightAware ADS-B
07:57PM 41.5574 -91.2404 269° West 379 436 38,000  Level FlightAware ADS-B
07:58PM 41.5564 -91.3534 269° West 380 437 38,000  Level FlightAware ADS-B
07:58PM 41.5556 -91.4306 269° West 380 437 38,000  Level FlightAware ADS-B
07:59PM 41.5546 -91.5219 269° West 380 437 38,000  Level FlightAware ADS-B
08:00PM 41.5536 -91.6004 269° West 380 437 38,000  Level FlightAware ADS-B
08:00PM 41.5528 -91.6752 269° West 379 436 38,000  Level FlightAware ADS-B
08:01PM 41.5519 -91.7456 269° West 387 445 38,000  Level FlightAware ADS-B
08:01PM 41.5504 -91.8497 269° West 390 449 38,000  Level FlightAware ADS-B
08:02PM 41.5494 -91.9120 269° West 389 448 38,000  Level FlightAware ADS-B
08:03PM 41.5477 -92.0292 269° West 389 448 38,000  Level FlightAware ADS-B
08:03PM 41.5464 -92.1126 269° West 389 448 38,000  Level FlightAware ADS-B
08:04PM 41.5452 -92.1869 269° West 389 448 38,000  Level FlightAware ADS-B
08:04PM 41.5439 -92.2616 269° West 389 448 38,000  Level FlightAware ADS-B
08:05PM 41.5412 -92.4068 269° West 389 448 38,000  Level FlightAware ADS-B
08:06PM 41.5391 -92.5132 268° West 389 448 38,000  Level FlightAware ADS-B
08:06PM 41.5376 -92.5882 268° West 388 447 38,000  Level FlightAware ADS-B
08:07PM 41.5356 -92.6830 268° West 379 436 38,000  Level FlightAware ADS-B
08:08PM 41.5317 -92.8619 268° West 378 435 38,000  Level FlightAware ADS-B
08:09PM 41.5300 -92.9316 268° West 378 435 38,000  Level FlightAware ADS-B
08:10PM 41.5281 -93.0155 268° West 376 433 38,000  Level FlightAware ADS-B
08:10PM 41.5260 -93.0979 268° West 377 434 38,000  Level FlightAware ADS-B
08:10PM 41.5257 -93.1119 268° West 377 434 38,000  Level FlightAware ADS-B
08:11PM 41.5239 -93.1796 268° West 377 434 38,000  Level FlightAware ADS-B
08:11PM 41.5221 -93.2511 268° West 377 434 38,000  Level FlightAware ADS-B
08:12PM 41.5202 -93.3226 268° West 377 434 38,000  Level FlightAware ADS-B
08:12PM 41.5183 -93.3921 268° West 377 434 38,000  Level FlightAware ADS-B
08:13PM 41.5163 -93.4624 268° West 376 433 38,000  Level FlightAware ADS-B
08:13PM 41.5160 -93.4735 268° West 376 433 38,000  Level FlightAware ADS-B
08:13PM 41.5142 -93.5336 268° West 375 432 38,000  Level FlightAware ADS-B
08:14PM 41.5122 -93.6042 268° West 375 432 38,000  Level FlightAware ADS-B
08:14PM 41.5101 -93.6754 268° West 376 433 38,000  Level FlightAware ADS-B
08:15PM 41.5078 -93.7475 268° West 376 433 38,000  Level FlightAware ADS-B
08:15PM 41.5056 -93.8202 268° West 377 434 38,000  Level FlightAware ADS-B
08:16PM 41.5034 -93.8908 268° West 377 434 38,000  Level FlightAware ADS-B
08:16PM 41.5011 -93.9614 268° West 378 435 38,000  Level FlightAware ADS-B
08:17PM 41.4987 -94.0340 267° West 379 436 38,000  Level FlightAware ADS-B
08:17PM 41.4960 -94.1058 267° West 380 437 38,000  Level FlightAware ADS-B
08:18PM 41.4932 -94.1756 267° West 380 437 38,000  Level FlightAware ADS-B
08:19PM 41.4876 -94.3176 267° West 379 436 38,000  Level FlightAware ADS-B
08:19PM 41.4846 -94.3887 267° West 379 436 38,000  Level FlightAware ADS-B
08:20PM 41.4818 -94.4585 267° West 379 436 38,000  Level FlightAware ADS-B
08:20PM 41.4789 -94.5292 267° West 380 437 38,000  Level FlightAware ADS-B
08:21PM 41.4760 -94.6001 267° West 380 437 38,000  Level FlightAware ADS-B
08:21PM 41.4730 -94.6717 267° West 380 437 38,000  Level FlightAware ADS-B
08:22PM 41.4701 -94.7396 267° West 379 436 38,000  Level FlightAware ADS-B
08:22PM 41.4671 -94.8116 267° West 379 436 38,000  Level FlightAware ADS-B
08:24PM 41.4597 -94.9705 266° West 379 436 38,000  Level FlightAware ADS-B
08:24PM 41.4560 -95.0469 266° West 380 437 38,000  Level FlightAware ADS-B
08:25PM 41.4527 -95.1178 266° West 381 438 38,000  Level FlightAware ADS-B
08:25PM 41.4495 -95.1866 266° West 383 441 38,000  Level FlightAware ADS-B
08:26PM 41.4460 -95.2617 266° West 383 441 38,000  Level FlightAware ADS-B
08:26PM 41.4424 -95.3335 266° West 383 441 38,000  Level FlightAware ADS-B
08:27PM 41.4389 -95.4025 266° West 383 441 38,000  Level FlightAware ADS-B
08:27PM 41.4354 -95.4749 266° West 384 442 38,000  Level FlightAware ADS-B
08:28PM 41.4319 -95.5468 266° West 384 442 38,000  Level FlightAware ADS-B
08:28PM 41.4281 -95.6206 266° West 384 442 38,000  Level FlightAware ADS-B
08:29PM 41.4246 -95.6921 266° West 383 441 38,000  Level FlightAware ADS-B
08:29PM 41.4208 -95.7644 266° West 383 441 38,000  Level FlightAware ADS-B
08:30PM 41.4169 -95.8371 266° West 383 441 38,000  Level FlightAware ADS-B
08:30PM 41.4129 -95.9103 266° West 383 441 38,000  Level FlightAware ADS-B
08:31PM 41.4090 -95.9803 266° West 384 442 38,000  Level FlightAware ADS-B
08:31PM 41.4048 -96.0560 266° West 384 442 38,000  Level FlightAware ADS-B
08:32PM 41.4008 -96.1280 266° West 384 442 38,000  Level FlightAware ADS-B
08:32PM 41.3969 -96.1977 266° West 385 443 38,000  Level FlightAware ADS-B
08:33PM 41.3928 -96.2708 266° West 386 444 38,000  Level FlightAware ADS-B
08:33PM 41.3884 -96.3433 265° West 388 447 38,000  Level FlightAware ADS-B
08:34PM 41.3839 -96.4214 266° West 390 449 38,000  Level FlightAware ADS-B
08:34PM 41.3799 -96.4917 266° West 391 450 38,000  Level FlightAware ADS-B
08:35PM 41.3756 -96.5655 265° West 391 450 38,000  Level FlightAware ADS-B
08:35PM 41.3712 -96.6388 265° West 391 450 38,000  Level FlightAware ADS-B
08:36PM 41.3666 -96.7144 265° West 391 450 38,000  Level FlightAware ADS-B
08:36PM 41.3622 -96.7870 265° West 390 449 38,000  Level FlightAware ADS-B
08:37PM 41.3577 -96.8591 265° West 389 448 38,000  Level FlightAware ADS-B
08:37PM 41.3531 -96.9319 265° West 389 448 38,000  Level FlightAware ADS-B
08:38PM 41.3486 -97.0034 265° West 389 448 38,000  Level FlightAware ADS-B
08:38PM 41.3436 -97.0841 265° West 390 449 38,000  Level FlightAware ADS-B
08:39PM 41.3375 -97.1772 265° West 390 449 38,000  Level FlightAware ADS-B
08:40PM 41.3315 -97.2679 265° West 390 449 38,000  Level FlightAware ADS-B
08:40PM 41.3267 -97.3398 265° West 390 449 38,000  Level FlightAware ADS-B
08:41PM 41.3223 -97.4071 265° West 391 450 38,000  Level FlightAware ADS-B
08:41PM 41.3168 -97.4878 265° West 391 450 38,000  Level FlightAware ADS-B
08:42PM 41.3119 -97.5599 265° West 392 451 38,000  Level FlightAware ADS-B
08:42PM 41.3070 -97.6302 265° West 392 451 38,000  Level FlightAware ADS-B
08:43PM 41.3017 -97.7067 265° West 392 451 38,000  Level FlightAware ADS-B
08:43PM 41.2964 -97.7827 265° West 392 451 38,000  Level FlightAware ADS-B
08:44PM 41.2911 -97.8577 265° West 392 451 38,000  Level FlightAware ADS-B
08:44PM 41.2858 -97.9313 265° West 392 451 38,000  Level FlightAware ADS-B
08:45PM 41.2805 -98.0060 265° West 393 452 38,000  Level FlightAware ADS-B
08:45PM 41.2751 -98.0799 264° West 394 453 38,000  Level FlightAware ADS-B
08:46PM 41.2698 -98.1510 264° West 394 453 38,000  Level FlightAware ADS-B
08:46PM 41.2644 -98.2235 264° West 394 453 38,000  Level FlightAware ADS-B
08:47PM 41.2587 -98.3014 264° West 394 453 38,000  Level FlightAware ADS-B
08:47PM 41.2532 -98.3738 264° West 393 452 38,000  Level FlightAware ADS-B
08:49PM 41.2408 -98.5362 264° West 391 450 38,000  Level FlightAware ADS-B
08:49PM 41.2353 -98.6064 264° West 392 451 38,000  Level FlightAware ADS-B
08:50PM 41.2292 -98.6843 264° West 393 452 38,000  Level FlightAware ADS-B
08:50PM 41.2234 -98.7580 264° West 393 452 38,000  Level FlightAware ADS-B
08:51PM 41.2176 -98.8307 264° West 393 452 38,000  Level FlightAware ADS-B
08:52PM 41.2036 -99.0053 264° West 392 451 38,000  Level FlightAware ADS-B
08:52PM 41.1977 -99.0779 264° West 393 452 38,000  Level FlightAware ADS-B
08:53PM 41.1916 -99.1512 264° West 393 452 38,000  Level FlightAware ADS-B
08:53PM 41.1856 -99.2240 264° West 394 453 38,000  Level FlightAware ADS-B
08:54PM 41.1797 -99.2949 264° West 393 452 38,000  Level FlightAware ADS-B
08:54PM 41.1731 -99.3720 264° West 393 452 38,000  Level FlightAware ADS-B
08:56PM 41.1521 -99.6180 263° West 392 451 38,000  Level FlightAware ADS-B
08:57PM 41.1458 -99.6903 263° West 392 451 38,000  Level FlightAware ADS-B
08:57PM 41.1397 -99.7594 263° West 393 452 38,000  Level FlightAware ADS-B
08:58PM 41.1330 -99.8358 263° West 393 452 38,000  Level FlightAware ADS-B
08:58PM 41.1258 -99.9170 263° West 394 453 38,000  Level FlightAware ADS-B
09:03PM 41.0602 -100.6251 263° West 391 450 38,000  Level FlightAware ADS-B (KEIK)
09:04PM 41.0530 -100.6995 263° West 391 450 38,000  Level FlightAware ADS-B (KEIK)
09:04PM 41.0447 -100.7853 263° West 392 451 38,000  Level FlightAware ADS-B (KEIK)
09:05PM 41.0371 -100.8666 263° West 392 451 38,000  Level FlightAware ADS-B (KEIK)
09:06PM 41.0286 -100.9547 263° West 390 449 38,000  Level FlightAware ADS-B (KEIK)
09:06PM 41.0212 -101.0323 263° West 390 449 38,000  Level FlightAware ADS-B (KEIK)
09:07PM 41.0134 -101.1111 263° West 391 450 38,000  Level FlightAware ADS-B
09:07PM 41.0056 -101.1924 263° West 393 452 38,000  Level FlightAware ADS-B (KEIK)
09:08PM 41.0034 -101.2143 262° West 395 455 38,000  Level FlightAware ADS-B
09:08PM 40.9925 -101.3242 262° West 395 455 38,000  Level FlightAware ADS-B
09:09PM 40.9841 -101.4076 263° West 396 456 38,000  Level FlightAware ADS-B (KEIK)
09:09PM 40.9811 -101.4377 262° West 397 457 38,000  Level FlightAware ADS-B (KEIK)
09:09PM 40.9734 -101.5132 262° West 398 458 38,000  Level FlightAware ADS-B
09:10PM 40.9620 -101.6248 262° West 398 458 38,000  Level FlightAware ADS-B
09:11PM 40.9546 -101.6969 262° West 399 459 38,000  Level FlightAware ADS-B
09:11PM 40.9517 -101.7244 262° West 398 458 38,000  Level FlightAware ADS-B (KEIK)
09:12PM 40.9384 -101.8534 262° West 398 458 38,000  Level FlightAware ADS-B (KEIK)
09:12PM 40.9306 -101.9277 262° West 397 457 38,000  Level FlightAware ADS-B (KEIK)
09:13PM 40.9220 -102.0089 262° West 395 455 38,000  Level FlightAware ADS-B
09:13PM 40.9151 -102.0738 262° West 395 455 38,000  Level FlightAware ADS-B
09:14PM 40.9066 -102.1539 262° West 395 455 38,000  Level FlightAware ADS-B
09:14PM 40.8995 -102.2192 262° West 395 455 38,000  Level FlightAware ADS-B (KEIK)
09:15PM 40.8903 -102.3040 262° West 394 453 38,000  Level FlightAware ADS-B
09:16PM 40.8812 -102.3885 262° West 393 452 38,000  Level FlightAware ADS-B
09:16PM 40.8718 -102.4734 262° West 394 453 38,000  Level FlightAware ADS-B
09:17PM 40.8637 -102.5471 262° West 395 455 38,000  Level FlightAware ADS-B
09:17PM 40.8556 -102.6200 262° West 395 455 38,000  Level FlightAware ADS-B (KEIK)
09:18PM 40.8466 -102.6999 262° West 394 453 38,000  Level FlightAware ADS-B (KEIK)
09:18PM 40.8369 -102.7865 262° West 394 453 38,000  Level FlightAware ADS-B (KEIK)
09:19PM 40.8289 -102.8572 261° West 394 453 38,000  Level FlightAware ADS-B (KEIK)
09:19PM 40.8238 -102.9023 262° West 394 453 38,000  Level FlightAware ADS-B
09:20PM 40.8114 -103.0107 261° West 398 458 38,000  Level FlightAware ADS-B (KEIK)
09:20PM 40.8013 -103.0985 261° West 400 460 38,000  Level FlightAware ADS-B (KEIK)
09:21PM 40.7908 -103.1890 261° West 402 463 38,000  Level FlightAware ADS-B
09:22PM 40.7821 -103.2634 261° West 403 464 38,000  Level FlightAware ADS-B
09:22PM 40.7736 -103.3365 261° West 403 464 38,000  Level FlightAware ADS-B
09:23PM 40.7644 -103.4141 261° West 404 465 38,000  Level FlightAware ADS-B (KEIK)
09:23PM 40.7562 -103.4829 261° West 403 464 38,000  Level FlightAware ADS-B
09:24PM 40.7472 -103.5580 261° West 404 465 38,000  Level FlightAware ADS-B (KEIK)
09:24PM 40.7374 -103.6398 261° West 403 464 38,000  Level FlightAware ADS-B (KEIK)
09:25PM 40.7294 -103.7057 261° West 403 464 38,000  Level FlightAware ADS-B (KEIK)
09:25PM 40.7173 -103.8045 261° West 405 466 38,000  Level FlightAware ADS-B (KEIK)
09:26PM 40.7081 -103.8798 261° West 404 465 38,000  Level FlightAware ADS-B (KEIK)
09:26PM 40.6984 -103.9584 261° West 405 466 38,000  Level FlightAware ADS-B
09:27PM 40.6873 -104.0483 261° West 405 466 38,000 80 Level FlightAware ADS-B
09:28PM 40.6759 -104.1397 261° West 402 463 38,100  Climbing FlightAware ADS-B
09:28PM 40.6671 -104.2094 261° West 399 459 38,000 -80 Descending FlightAware ADS-B (KEIK)
09:29PM 40.6528 -104.3233 261° West 395 455 38,000  Level FlightAware ADS-B (KEIK)
09:29PM 40.6442 -104.3909 261° West 394 453 38,000  Level FlightAware ADS-B
09:30PM 40.6345 -104.4663 260° West 395 455 38,000  Level FlightAware ADS-B (KEIK)
09:30PM 40.6260 -104.5327 260° West 397 457 38,000  Level FlightAware ADS-B
09:31PM 40.6158 -104.6116 260° West 398 458 38,000  Level FlightAware ADS-B (KEIK)
09:32PM 40.6039 -104.7030 260° West 400 460 38,000  Level FlightAware ADS-B
09:32PM 40.5935 -104.7828 260° West 400 460 38,000  Level FlightAware ADS-B (KEIK)
09:33PM 40.5842 -104.8535 260° West 400 460 38,000  Level FlightAware ADS-B (KEIK)
09:33PM 40.5748 -104.9252 260° West 399 459 38,000 74 Level FlightAware ADS-B (KEIK)
09:34PM 40.5597 -105.0385 260° West 397 457 38,100  Climbing FlightAware ADS-B (KEIK)
09:35PM 40.5487 -105.1208 260° West 395 455 38,000 -92 Descending FlightAware ADS-B (KEIK)
09:35PM 40.5378 -105.2011 260° West 392 451 38,000  Level FlightAware ADS-B
09:36PM 40.5155 -105.3654 260° West 388 447 38,000  Level FlightAware ADS-B (KEIK)
09:37PM 40.5067 -105.4303 260° West 390 449 38,000  Level FlightAware ADS-B (KEIK)
09:37PM 40.4940 -105.5226 260° West 391 450 38,000  Level FlightAware ADS-B
09:38PM 40.4874 -105.5699 260° West 393 452 38,000  Level FlightAware ADS-B
09:39PM 40.4720 -105.6811 260° West 399 459 38,000  Level FlightAware ADS-B
09:39PM 40.4529 -105.8172 260° West 403 464 38,000 67 Level FlightAware ADS-B (KEIK)
09:40PM 40.4412 -105.9001 260° West 403 464 38,100 94 Climbing FlightAware ADS-B (KEIK)
09:41PM 40.4435 -105.8844 259° West 402 463 38,100  Level FlightAware ADS-B
09:41PM 40.4176 -106.0662 259° West 400 460 38,100  Level FlightAware ADS-B (KEIK)
09:42PM 40.4078 -106.1348 259° West 396 456 38,100 -79 Level FlightAware ADS-B (KEIK)
09:42PM 40.3922 -106.2432 259° West 396 456 38,000 -67 Descending FlightAware ADS-B (KEIK)
09:43PM 40.3777 -106.3436 259° West 397 457 38,000  Level FlightAware ADS-B (KEIK)
09:44PM 40.3669 -106.4173 259° West 398 458 38,000  Level FlightAware ADS-B (KEIK)
09:44PM 40.3564 -106.4888 259° West 399 459 38,000  Level FlightAware ADS-B (KEIK)
09:45PM 40.3421 -106.5858 259° West 401 461 38,000  Level FlightAware ADS-B (KEIK)
09:46PM 40.3285 -106.6777 259° West 402 463 38,000  Level FlightAware ADS-B (KEIK)
09:46PM 40.3173 -106.7531 259° West 402 463 38,000 98 Level FlightAware ADS-B (KEIK)
09:47PM 40.3059 -106.8291 259° West 399 459 38,100  Climbing FlightAware ADS-B (KEIK)
09:47PM 40.2944 -106.9054 259° West 398 458 38,000 -81 Descending FlightAware ADS-B
09:48PM 40.2863 -106.9594 259° West 395 455 38,000  Level FlightAware ADS-B
09:48PM 40.2680 -107.0798 259° West 393 452 38,000  Level FlightAware ADS-B (KEIK)
09:49PM 40.2550 -107.1646 259° West 391 450 38,000  Level FlightAware ADS-B (KGUC)
09:50PM 40.2415 -107.2523 259° West 390 449 38,000  Level FlightAware ADS-B
09:50PM 40.2313 -107.3186 259° West 390 449 38,000  Level FlightAware ADS-B (KGUC)
09:51PM 40.2122 -107.4418 259° West 392 451 38,000  Level FlightAware ADS-B
09:52PM 40.2000 -107.5194 258° West 394 453 38,000  Level FlightAware ADS-B (KGUC)
09:52PM 40.1893 -107.5885 259° West 395 455 38,000 91 Level FlightAware ADS-B (KGUC)
09:53PM 40.1757 -107.6750 258° West 393 452 38,100 91 Climbing FlightAware ADS-B
09:53PM 40.1646 -107.7452 258° West 391 450 38,100 -92 Level FlightAware ADS-B
09:54PM 40.1525 -107.8213 258° West 391 450 38,000 -81 Descending FlightAware ADS-B
09:54PM 40.1379 -107.9129 258° West 392 451 38,000  Level FlightAware ADS-B
09:55PM 40.1261 -107.9861 258° West 392 451 38,000  Level FlightAware ADS-B
09:55PM 40.1149 -108.0555 258° West 393 452 38,000  Level FlightAware ADS-B
09:56PM 40.1018 -108.1364 258° West 394 453 38,000  Level FlightAware ADS-B
09:56PM 40.0908 -108.2042 258° West 395 455 38,000  Level FlightAware ADS-B
09:57PM 40.0779 -108.2828 258° West 395 455 38,000  Level FlightAware ADS-B
09:58PM 40.0663 -108.3542 258° West 394 453 38,000  Level FlightAware ADS-B
09:58PM 40.0537 -108.4304 258° West 392 451 38,000  Level FlightAware ADS-B
09:59PM 40.0426 -108.4980 258° West 391 450 38,000  Level FlightAware ADS-B
09:59PM 40.0294 -108.5775 258° West 390 449 38,000  Level FlightAware ADS-B (KGUC)
10:00PM 40.0181 -108.6453 258° West 390 449 38,000  Level FlightAware ADS-B
10:00PM 40.0047 -108.7254 258° West 390 449 38,000  Level FlightAware ADS-B
10:01PM 39.9929 -108.7952 258° West 391 450 38,000  Level FlightAware ADS-B
10:01PM 39.9798 -108.8727 258° West 393 452 38,000  Level FlightAware ADS-B
10:02PM 39.9674 -108.9457 258° West 394 453 38,000  Level FlightAware ADS-B (KGUC)
10:02PM 39.9541 -109.0238 258° West 393 452 38,000  Level FlightAware ADS-B (KGUC)
10:03PM 39.9416 -109.0967 257° West 395 455 38,000  Level FlightAware ADS-B (KGUC)
10:03PM 39.9293 -109.1683 257° West 394 453 38,000  Level FlightAware ADS-B
10:04PM 39.9174 -109.2378 257° West 393 452 38,000  Level FlightAware ADS-B (KGUC)
10:04PM 39.9067 -109.2994 257° West 392 451 38,000  Level FlightAware ADS-B (KGUC)
10:05PM 39.8933 -109.3769 257° West 392 451 38,000  Level FlightAware ADS-B
10:05PM 39.8841 -109.4299 257° West 390 449 38,000  Level FlightAware ADS-B (KGUC)
10:06PM 39.8681 -109.5215 257° West 390 449 38,000  Level FlightAware ADS-B (KGUC)
10:06PM 39.8563 -109.5889 257° West 390 449 38,000  Level FlightAware ADS-B (KGUC)
10:07PM 39.8419 -109.6702 257° West 391 450 38,000  Level FlightAware ADS-B
10:08PM 39.8282 -109.7471 257° West 391 450 38,000  Level FlightAware ADS-B
10:08PM 39.8161 -109.8157 257° West 391 450 38,000  Level FlightAware ADS-B
10:09PM 39.8031 -109.8884 257° West 391 450 38,000  Level FlightAware ADS-B (KGUC)
10:09PM 39.7864 -109.9811 257° West 390 449 38,000  Level FlightAware ADS-B (KGUC)
10:10PM 39.7715 -110.0639 257° West 389 448 38,000  Level FlightAware ADS-B
10:11PM 39.7576 -110.1407 257° West 391 450 38,000  Level FlightAware ADS-B (KGUC)
10:11PM 39.7455 -110.2043 256° West 390 449 38,000  Level FlightAware ADS-B (KGUC)
10:12PM 39.7307 -110.2796 256° West 390 449 38,000  Level FlightAware ADS-B (KGUC)
10:12PM 39.7178 -110.3457 256° West 391 450 38,000  Level FlightAware ADS-B
10:13PM 39.7044 -110.4149 256° West 393 452 38,000  Level FlightAware ADS-B (KGUC)
10:13PM 39.6916 -110.4802 256° West 394 453 38,000  Level FlightAware ADS-B (KGUC)
10:14PM 39.6709 -110.5860 256° West 394 453 38,000 80 Level FlightAware ADS-B
10:14PM 39.6574 -110.6543 256° West 392 451 38,100  Climbing FlightAware ADS-B
10:15PM 39.6435 -110.7250 256° West 390 449 38,000 -100 Descending FlightAware ADS-B
10:15PM 39.6306 -110.7900 256° West 388 447 38,000  Level FlightAware ADS-B
10:16PM 39.6148 -110.8695 256° West 387 445 38,000  Level FlightAware ADS-B
10:16PM 39.6015 -110.9367 256° West 386 444 38,000  Level FlightAware ADS-B
10:17PM 39.5829 -111.0293 255° West 388 447 38,000  Level FlightAware ADS-B
10:18PM 39.5725 -111.0806 255° West 394 453 38,000  Level FlightAware ADS-B
10:18PM 39.5487 -111.1990 255° West 396 456 38,000  Level FlightAware ADS-B
10:19PM 39.5305 -111.2883 255° West 401 461 38,000  Level FlightAware ADS-B
10:20PM 39.5143 -111.3679 255° West 403 464 38,000 90 Level FlightAware ADS-B
10:20PM 39.4974 -111.4504 255° West 405 466 38,100 91 Climbing FlightAware ADS-B
10:21PM 39.4829 -111.5210 255° West 404 465 38,100  Level FlightAware ADS-B
10:21PM 39.4659 -111.6037 255° West 397 457 38,100 -81 Level FlightAware ADS-B
10:22PM 39.4492 -111.6849 255° West 394 453 38,000 -83 Descending FlightAware ADS-B
10:22PM 39.4320 -111.7676 255° West 391 450 38,000  Level FlightAware ADS-B
10:23PM 39.4165 -111.8423 255° West 391 450 38,000  Level FlightAware ADS-B
10:23PM 39.4029 -111.9073 255° West 387 445 38,000  Level FlightAware ADS-B
10:24PM 39.3869 -111.9836 255° West 384 442 38,000  Level FlightAware ADS-B
10:25PM 39.3707 -112.0607 255° West 386 444 38,000  Level FlightAware ADS-B
10:25PM 39.3530 -112.1439 255° West 390 449 38,000  Level FlightAware ADS-B
10:26PM 39.3415 -112.1984 255° West 394 453 38,000  Level FlightAware ADS-B
10:26PM 39.3315 -112.2457 256° West 395 455 38,000  Level FlightAware ADS-B (KBTF)
10:27PM 39.3164 -112.3165 255° West 398 458 38,000 83 Level FlightAware ADS-B
10:27PM 39.2965 -112.4095 255° West 395 455 38,100 78 Climbing FlightAware ADS-B
10:28PM 39.2785 -112.4934 255° West 390 449 38,100  Level FlightAware ADS-B
10:28PM 39.2729 -112.5193 256° West 387 445 38,100  Level FlightAware ADS-B (KBTF)
10:28PM 39.2636 -112.5624 256° West 384 442 38,100  Level FlightAware ADS-B (KBTF)
10:28PM 39.2595 -112.5814 256° West 383 441 38,100 -333 Level FlightAware ADS-B
10:29PM 39.2551 -112.6017 256° West 382 440 38,000 -300 Descending FlightAware ADS-B (KBTF)
10:29PM 39.2492 -112.6289 255° West 381 438 38,000  Level FlightAware ADS-B (KBTF)
10:29PM 39.2346 -112.6965 254° West 380 437 38,000  Level FlightAware ADS-B
10:30PM 39.2206 -112.7615 254° West 382 440 38,000  Level FlightAware ADS-B
10:30PM 39.2032 -112.8409 254° West 385 443 38,000  Level FlightAware ADS-B
10:31PM 39.1893 -112.9042 254° West 389 448 38,000  Level FlightAware ADS-B
10:32PM 39.1718 -112.9838 254° West 389 448 38,000  Level FlightAware ADS-B
10:32PM 39.1614 -113.0310 255° West 389 448 38,000  Level FlightAware ADS-B
10:32PM 39.1519 -113.0740 255° West 390 449 38,000 200 Level FlightAware ADS-B
10:32PM 39.1468 -113.0973 254° West 392 451 38,100 176 Climbing FlightAware ADS-B
10:33PM 39.1349 -113.1508 255° West 386 444 38,100 -113 Level FlightAware ADS-B
10:33PM 39.1208 -113.2144 254° West 387 445 38,000  Descending FlightAware ADS-B
10:33PM 39.1185 -113.2250 254° West 387 445 38,100  Climbing FlightAware ADS-B
10:34PM 39.0989 -113.3130 254° West 388 447 38,000 -86 Descending FlightAware ADS-B
10:34PM 39.0847 -113.3763 254° West 388 447 38,000  Level FlightAware ADS-B
10:35PM 39.0788 -113.4027 255° West 383 441 38,000  Level FlightAware ADS-B (KBTF)
10:35PM 39.0626 -113.4746 254° West 384 442 38,000  Level FlightAware ADS-B
10:36PM 39.0479 -113.5397 254° West 384 442 38,000  Level FlightAware ADS-B
10:36PM 39.0268 -113.6334 254° West 387 445 38,000  Level FlightAware ADS-B
10:37PM 39.0121 -113.6982 254° West 387 445 38,000  Level FlightAware ADS-B
10:38PM 38.9900 -113.7953 254° West 388 447 38,000 72 Level FlightAware ADS-B
10:38PM 38.9703 -113.8817 254° West 388 447 38,100  Climbing FlightAware ADS-B
10:39PM 38.9532 -113.9560 254° West 384 442 38,000 -82 Descending FlightAware ADS-B
10:39PM 38.9338 -114.0404 254° West 385 443 38,000  Level FlightAware ADS-B
10:40PM 38.9171 -114.1127 254° West 387 445 38,000  Level FlightAware ADS-B
10:40PM 38.9100 -114.1431 253° West 389 448 38,000  Level FlightAware ADS-B
10:41PM 38.8914 -114.2234 253° West 396 456 38,000  Level FlightAware ADS-B
10:41PM 38.8744 -114.2964 253° West 397 457 38,000 94 Level FlightAware ADS-B
10:42PM 38.8573 -114.3694 253° West 394 453 38,100 77 Climbing FlightAware ADS-B
10:43PM 38.8397 -114.4467 253° West 394 453 38,100 -56 Level Salt Lake Center
10:44PM 38.8019 -114.6033 253° West 386 444 38,000 -49 Descending Salt Lake Center
10:45PM 38.7694 -114.7375 253° West 389 448 38,000  Level Salt Lake Center
10:46PM 38.7378 -114.8742 253° West 400 460 38,000  Level Salt Lake Center
10:47PM 38.7050 -115.0078 253° West 399 459 38,000  Level Salt Lake Center
10:48PM 38.6728 -115.1422 253° West 399 459 38,000  Level Salt Lake Center
10:49PM 38.6406 -115.2753 253° West 398 458 38,000  Level Salt Lake Center
10:50PM 38.6061 -115.4178 253° West 397 457 38,000  Level Salt Lake Center
10:51PM 38.5733 -115.5514 253° West 397 457 38,000  Level Salt Lake Center
10:57PM 38.3761 -116.3430 253° West 391 450 38,000  Level FlightAware ADS-B
10:57PM 38.3566 -116.4198 253° West 391 450 38,000  Level FlightAware ADS-B
10:58PM 38.3355 -116.5026 253° West 392 451 38,000  Level FlightAware ADS-B
10:59PM 38.3125 -116.5921 253° West 393 452 38,000  Level FlightAware ADS-B
10:59PM 38.2917 -116.6733 253° West 392 451 38,000  Level FlightAware ADS-B
11:00PM 38.2696 -116.7592 253° West 394 453 38,000  Level FlightAware ADS-B
11:01PM 38.2496 -116.8362 253° West 391 450 38,000  Level FlightAware ADS-B
11:01PM 38.2348 -116.9217 261° West 392 451 38,000  Level FlightAware ADS-B
11:02PM 38.2254 -116.9931 260° West 390 449 38,000  Level FlightAware ADS-B
11:02PM 38.2130 -117.0860 260° West 387 445 38,000  Level FlightAware ADS-B
11:03PM 38.2028 -117.1618 260° West 386 444 38,000  Level FlightAware ADS-B
11:04PM 38.1915 -117.2461 260° West 387 445 38,000  Level FlightAware ADS-B
11:04PM 38.1804 -117.3279 260° West 388 447 38,000  Level FlightAware ADS-B
11:05PM 38.1660 -117.4335 260° West 392 451 38,000  Level FlightAware ADS-B
11:06PM 38.1548 -117.5154 260° West 396 456 38,000  Level FlightAware ADS-B
11:06PM 38.1395 -117.6257 260° West 397 457 38,000  Level FlightAware ADS-B
11:08PM 38.1174 -117.7849 260° West 395 455 38,000  Level FlightAware ADS-B
11:08PM 38.1067 -117.8636 260° West 394 453 38,000  Level Salt Lake Center
11:09PM 38.0903 -117.9725 259° West 393 452 38,000  Level Oakland Center
11:10PM 38.0706 -118.1075 260° West 390 449 38,000  Level Oakland Center
11:11PM 38.0522 -118.2411 260° West 385 443 38,000  Level Oakland Center
11:16PM 37.9684 -118.8140 259° West 392 451 38,000  Level FlightAware ADS-B
11:17PM 37.9292 -119.0750 259° West 393 452 38,000  Level FlightAware ADS-B
11:18PM 37.9186 -119.1444 259° West 395 455 38,000  Level FlightAware ADS-B
11:18PM 37.9079 -119.2146 259° West 400 460 38,000  Level FlightAware ADS-B
11:21PM 37.8474 -119.6056 259° West 392 451 38,000  Level FlightAware ADS-B
11:22PM 37.8364 -119.6757 259° West 390 449 38,000 -64 Level FlightAware ADS-B
11:26PM 37.7466 -120.2364 259° West 384 442 37,700 -184 Descending FlightAware ADS-B
11:26PM 37.7320 -120.3263 258° West 380 437 37,100 -1,333 Descending FlightAware ADS-B
11:27PM 37.7183 -120.4099 258° West 381 438 35,900 -2,148 Descending FlightAware ADS-B
11:28PM 37.7037 -120.4980 258° West 374 430 34,200 -2,889 Descending FlightAware ADS-B
11:28PM 37.6894 -120.5852 258° West 380 437 32,000 -3,150 Descending FlightAware ADS-B
11:29PM 37.6749 -120.6722 258° West 379 436 30,000 -2,700 Descending FlightAware ADS-B
11:30PM 37.6608 -120.7570 258° West 366 421 28,400 -2,506 Descending FlightAware ADS-B
11:30PM 37.6473 -120.8377 258° West 358 412 26,700 -2,550 Descending FlightAware ADS-B
11:31PM 37.6332 -120.9214 258° West 349 402 25,000 -2,475 Descending FlightAware ADS-B
11:32PM 37.6223 -120.9986 262° West 341 392 23,400 -2,400 Descending FlightAware ADS-B
11:32PM 37.6135 -121.0787 262° West 335 386 21,800 -2,700 Descending FlightAware ADS-B
11:33PM 37.6053 -121.1521 262° West 345 397 19,800 -2,550 Descending FlightAware ADS-B
11:34PM 37.5961 -121.2322 262° West 337 388 18,400 -2,400 Descending FlightAware ADS-B
11:34PM 37.5876 -121.3076 262° West 319 367 16,600 -2,400 Descending FlightAware ADS-B
11:35PM 37.5791 -121.3811 262° West 314 361 15,200 -2,045 Descending FlightAware ADS-B
11:35PM 37.5782 -121.3880 262° West 314 361 15,100 -2,118 Descending FlightAware ADS-B
11:36PM 37.5715 -121.4450 262° West 311 358 14,000 -2,270 Descending FlightAware ADS-B
11:36PM 37.5708 -121.4513 262° West 312 359 13,700 -2,400 Descending FlightAware ADS-B
11:36PM 37.5655 -121.4970 262° West 309 356 12,800 -2,100 Descending FlightAware ADS-B
11:36PM 37.5621 -121.5259 262° West 309 356 12,300 -2,323 Descending FlightAware ADS-B
11:37PM 37.5590 -121.5520 262° West 311 358 11,600 -1,756 Descending FlightAware ADS-B
11:37PM 37.5537 -121.5974 262° West 302 348 11,100 -1,125 Descending FlightAware ADS-B
11:37PM 37.5524 -121.6090 262° West 299 344 11,000 -600 Descending FlightAware ADS-B
11:37PM 37.5491 -121.6310 256° West 286 329 10,900 -176 Descending FlightAware ADS-B
11:38PM 37.5420 -121.6609 253° West 261 300 10,900  Level FlightAware ADS-B
11:38PM 37.5387 -121.6740 253° West 250 288 10,900 -450 Level FlightAware ADS-B
11:38PM 37.5287 -121.7160 253° West 235 270 10,600 -915 Descending FlightAware ADS-B
11:39PM 37.5201 -121.7520 253° West 223 257 10,000 -1,538 Descending FlightAware ADS-B
11:39PM 37.5169 -121.7656 253° West 221 254 9,600 -1,875 Descending FlightAware ADS-B
11:39PM 37.5155 -121.7710 253° West 222 255 9,500 -1,500 Descending FlightAware ADS-B
11:39PM 37.5111 -121.7900 253° West 224 258 9,100 -1,500 Descending FlightAware ADS-B
11:39PM 37.5112 -121.7892 253° West 224 258 9,100 -1,600 Level FlightAware ADS-B
11:40PM 37.5063 -121.8100 253° West 223 257 8,700 -1,500 Descending FlightAware ADS-B
11:40PM 37.5048 -121.8158 253° West 223 257 8,600 -1,000 Descending FlightAware ADS-B
11:40PM 37.5030 -121.8230 253° West 222 255 8,500 -1,579 Descending FlightAware ADS-B
11:40PM 37.4990 -121.8399 253° West 221 254 8,100 -1,600 Descending FlightAware ADS-B
11:40PM 37.4984 -121.8420 253° West 221 254 8,100 -1,143 Level FlightAware ADS-B
11:40PM 37.4931 -121.8650 253° West 219 252 7,700 -1,200 Descending FlightAware ADS-B
11:40PM 37.4927 -121.8670 253° West 218 251 7,700 -1,500 Level FlightAware ADS-B
11:41PM 37.4883 -121.8850 253° West 220 253 7,300 -1,579 Descending FlightAware ADS-B
11:41PM 37.4881 -121.8859 253° West 220 253 7,200 -1,500 Descending FlightAware ADS-B
11:41PM 37.4840 -121.9030 253° West 218 251 6,900 -1,579 Descending FlightAware ADS-B
11:41PM 37.4829 -121.9078 253° West 220 253 6,700 -1,600 Descending FlightAware ADS-B
11:41PM 37.4793 -121.9230 253° West 220 253 6,500 -1,200 Descending FlightAware ADS-B
11:41PM 37.4759 -121.9371 253° West 220 253 6,300 -1,125 Descending FlightAware ADS-B
11:41PM 37.4746 -121.9420 253° West 215 247 6,200 -947 Descending FlightAware ADS-B
11:42PM 37.4705 -121.9590 253° West 217 250 6,000 -818 Descending FlightAware ADS-B
11:42PM 37.4684 -121.9681 253° West 221 254 5,900 -400 Descending FlightAware ADS-B
11:42PM 37.4657 -121.9790 253° West 222 255 5,900  Level FlightAware ADS-B
11:42PM 37.4637 -121.9873 253° West 222 255 5,900  Level FlightAware ADS-B
11:42PM 37.4624 -121.9930 253° West 220 253 5,900  Level FlightAware ADS-B
11:42PM 37.4611 -121.9990 256° West 219 252 5,900 -400 Level FlightAware ADS-B
11:42PM 37.4617 -122.0128 286° West 223 257 5,800 -667 Descending FlightAware ADS-B
11:43PM 37.4651 -122.0210 268° West 220 253 5,700 -857 Descending FlightAware ADS-B
11:43PM 37.4690 -122.0270 313° West 226 260 5,600 -545 Descending FlightAware ADS-B
11:43PM 37.4728 -122.0319 311° West 225 259 5,600 -1,000 Level FlightAware ADS-B
11:43PM 37.4737 -122.0330 310° West 225 259 5,500 -1,000 Descending FlightAware ADS-B
11:43PM 37.4768 -122.0380 307° West 223 257 5,500 -667 Level FlightAware ADS-B
11:43PM 37.4793 -122.0430 305° West 222 255 5,400 -1,200 Descending FlightAware ADS-B
11:43PM 37.4826 -122.0490 302° West 222 255 5,300 -500 Descending FlightAware ADS-B
11:43PM 37.4855 -122.0551 301° West 221 254 5,300 -545 Level FlightAware ADS-B
11:43PM 37.4883 -122.0610 299° West 220 253 5,200 -1,200 Descending FlightAware ADS-B
11:43PM 37.4955 -122.0777 298° West 221 254 4,900 -1,385 Descending FlightAware ADS-B
11:44PM 37.5008 -122.0900 298° West 221 254 4,600 -1,875 Descending FlightAware ADS-B
11:44PM 37.5035 -122.0963 298° West 216 249 4,400 -1,333 Descending FlightAware ADS-B
11:44PM 37.5093 -122.1100 298° West 212 244 4,200 -500 Descending FlightAware ADS-B
11:44PM 37.5191 -122.1330 298° West 197 227 4,100 -632 Descending FlightAware ADS-B
11:45PM 37.5248 -122.1460 297° West 174 200 3,800 -1,400 Descending FlightAware ADS-B
11:45PM 37.5305 -122.1600 298° West 166 191 3,400 -1,313 Descending FlightAware ADS-B
11:45PM 37.5363 -122.1740 298° West 152 175 3,100 -938 Descending FlightAware ADS-B
11:45PM 37.5411 -122.1850 298° West 147 169 2,900 -692 Descending FlightAware ADS-B
11:46PM 37.5444 -122.1932 298° West 146 168 2,800 -750 Descending FlightAware ADS-B
11:46PM 37.5462 -122.1970 298° West 145 167 2,700 -900 Descending FlightAware ADS-B
11:46PM 37.5508 -122.2080 298° West 144 166 2,500 -667 Descending FlightAware ADS-B
11:46PM 37.5543 -122.2167 298° West 141 162 2,400 -462 Descending FlightAware ADS-B
11:46PM 37.5549 -122.2180 298° West 141 162 2,400 -1,000 Level FlightAware ADS-B
11:46PM 37.5581 -122.2250 298° West 139 160 2,200 -1,059 Descending FlightAware ADS-B
11:46PM 37.5575 -122.2242 298° West 140 161 2,100 -800 Descending FlightAware ADS-B
11:47PM 37.5631 -122.2370 298° West 139 160 2,000 -750 Descending FlightAware ADS-B
11:47PM 37.5647 -122.2414 298° West 140 161 1,900 -750 Descending FlightAware ADS-B
11:47PM 37.5677 -122.2480 298° West 138 159 1,800 -750 Descending FlightAware ADS-B
11:47PM 37.5720 -122.2590 298° West 134 154 1,600 -643 Descending FlightAware ADS-B
11:47PM 37.5758 -122.2670 298° West 130 150 1,500 -571 Descending FlightAware ADS-B
11:47PM 37.5778 -122.2720 297° West 128 147 1,400 -571 Descending FlightAware ADS-B
11:48PM 37.5815 -122.2810 298° West 117 135 1,300 -571 Descending FlightAware ADS-B
11:48PM 37.5835 -122.2860 297° West 113 130 1,200 -750 Descending FlightAware ADS-B
11:48PM 37.5873 -122.2950 298° West 117 135 1,000 -649 Descending FlightAware ADS-B
11:48PM 37.5928 -122.3080 298° West 115 132 800 -514 Descending FlightAware ADS-B
11:49PM 37.5961 -122.3160 298° West 115 132 700 -500 Descending FlightAware ADS-B
11:49PM 37.5987 -122.3220 298° West 113 130 600 -720 Descending FlightAware ADS-B
11:49PM 37.6023 -122.3310 298° West 114 131 400 -621 Descending FlightAware ADS-B
11:49PM 37.6057 -122.3390 297° West 114 131 300 -522 Descending FlightAware ADS-B
11:49PM 37.6078 -122.3440 297° West 113 130 200 -545 Descending FlightAware ADS-B
11:50PM 37.6112 -122.3520 298° West 115 132 100 -91 Descending FlightAware ADS-B
11:50PM 37.6244 -122.3789 298° West 118 136 100  Level Oakland Center
11:52PM 37.6167 -122.3667 North  Level FlightAware Approximate

Login

Don't have an account? Register now (free) for customized features, flight alerts, and more!